createdAt,value
2023-03-06T00:01:06.685Z,100929.16
2023-03-06T00:03:08.702Z,100930.19
2023-03-06T00:05:10.803Z,100925.91
2023-03-06T00:07:12.966Z,100927.69
2023-03-06T00:09:15.031Z,100928.47
2023-03-06T00:11:17.560Z,100923.22
2023-03-06T00:13:21.938Z,100917.31
2023-03-06T00:15:25.214Z,100919.88
2023-03-06T00:17:28.823Z,100921.50
2023-03-06T00:19:30.898Z,100925.69
2023-03-06T00:21:32.894Z,100918.72
2023-03-06T00:23:35.115Z,100918.72
2023-03-06T00:25:38.960Z,100919.72
2023-03-06T00:27:41.549Z,100914.50
2023-03-06T00:29:43.627Z,100910.25
2023-03-06T00:31:48.033Z,100913.69
2023-03-06T00:33:50.118Z,100909.44
2023-03-06T00:35:52.228Z,100910.19
2023-03-06T00:37:54.224Z,100907.63
2023-03-06T00:39:56.336Z,100900.53
2023-03-06T00:41:58.444Z,100901.59
2023-03-06T00:44:00.523Z,100895.56
2023-03-06T00:46:02.836Z,100896.50
2023-03-06T00:48:05.595Z,100894.84
2023-03-06T00:50:08.826Z,100893.13
2023-03-06T00:52:11.413Z,100888.06
2023-03-06T00:54:13.407Z,100887.91
2023-03-06T00:56:15.541Z,100885.44
2023-03-06T00:58:19.100Z,100884.63
2023-03-06T01:00:21.384Z,100881.25
2023-03-06T01:02:23.522Z,100881.22
2023-03-06T01:04:25.860Z,100878.03
2023-03-06T01:06:27.891Z,100882.25
2023-03-06T01:08:29.935Z,100877.84
2023-03-06T01:10:31.943Z,100877.91
2023-03-06T01:12:33.908Z,100871.03
2023-03-06T01:14:35.962Z,100871.16
2023-03-06T01:16:38.051Z,100865.81
2023-03-06T01:18:40.166Z,100862.19
2023-03-06T01:20:42.321Z,100869.81
2023-03-06T01:22:45.150Z,100864.91
2023-03-06T01:24:47.152Z,100867.44
2023-03-06T01:26:49.156Z,100867.56
2023-03-06T01:28:51.198Z,100860.72
2023-03-06T01:30:53.443Z,100855.28
2023-03-06T01:32:55.407Z,100852.84
2023-03-06T01:34:57.622Z,100850.22
2023-03-06T01:36:59.678Z,100844.06
2023-03-06T01:39:01.687Z,100844.06
2023-03-06T01:41:05.864Z,100842.44
2023-03-06T01:43:11.619Z,100838.16
2023-03-06T01:45:14.300Z,100840.88
2023-03-06T01:47:16.235Z,100835.75
2023-03-06T01:49:24.813Z,100840.72
2023-03-06T01:51:32.464Z,100835.75
2023-03-06T01:53:34.444Z,100836.53
2023-03-06T01:55:37.179Z,100831.47
2023-03-06T01:57:44.365Z,100832.34
2023-03-06T01:59:53.179Z,100833.16
2023-03-06T02:01:56.430Z,100829.84
2023-03-06T02:04:00.970Z,100824.72
2023-03-06T02:06:03.003Z,100831.53
2023-03-06T02:08:06.956Z,100826.31
2023-03-06T02:10:10.392Z,100825.53
2023-03-06T02:12:16.706Z,100820.44
2023-03-06T02:14:18.869Z,100821.56
2023-03-06T02:16:27.991Z,100820.69
2023-03-06T02:18:33.049Z,100810.34
2023-03-06T02:20:43.852Z,100810.47
2023-03-06T02:22:46.046Z,100808.13
2023-03-06T02:24:56.962Z,100812.22
2023-03-06T02:26:59.881Z,100812.81
2023-03-06T02:29:02.174Z,100808.72
2023-03-06T02:31:04.293Z,100805.06
2023-03-06T02:33:06.765Z,100800.81
2023-03-06T02:35:20.777Z,100794.94
2023-03-06T02:37:25.281Z,100797.38
2023-03-06T02:39:29.933Z,100797.38
2023-03-06T02:41:32.091Z,100796.56
2023-03-06T02:43:40.934Z,100800.66
2023-03-06T02:45:46.470Z,100787.88
2023-03-06T02:47:48.580Z,100793.91
2023-03-06T02:49:50.575Z,100788.69
2023-03-06T02:51:52.710Z,100788.44
2023-03-06T02:53:54.771Z,100787.56
2023-03-06T02:55:56.778Z,100790.88
2023-03-06T02:57:58.900Z,100788.22
2023-03-06T03:00:00.935Z,100781.47
2023-03-06T03:02:03.031Z,100779.84
2023-03-06T03:04:05.215Z,100775.50
2023-03-06T03:06:08.046Z,100776.91
2023-03-06T03:08:10.282Z,100767.50
2023-03-06T03:10:13.048Z,100776.09
2023-03-06T03:12:15.023Z,100769.25
2023-03-06T03:14:16.949Z,100767.31
2023-03-06T03:16:19.041Z,100768.13
2023-03-06T03:18:21.030Z,100763.78
2023-03-06T03:20:23.698Z,100764.84
2023-03-06T03:22:25.837Z,100761.06
2023-03-06T03:24:27.920Z,100750.69
2023-03-06T03:26:29.898Z,100753.94
2023-03-06T03:28:31.893Z,100752.38
2023-03-06T03:30:33.872Z,100751.41
2023-03-06T03:32:35.870Z,100751.41
2023-03-06T03:34:38.047Z,100747.16
2023-03-06T03:36:40.477Z,100753.84
2023-03-06T03:38:42.470Z,100746.34
2023-03-06T03:40:44.494Z,100740.38
2023-03-06T03:42:46.482Z,100740.69
2023-03-06T03:44:48.455Z,100734.66
2023-03-06T03:46:51.227Z,100725.91
2023-03-06T03:48:53.346Z,100735.25
2023-03-06T03:50:55.458Z,100730.22
2023-03-06T03:52:57.530Z,100725.44
2023-03-06T03:54:59.722Z,100739.44
2023-03-06T03:57:01.983Z,100741.50
2023-03-06T03:59:03.957Z,100733.03
2023-03-06T04:01:06.755Z,100733.16
2023-03-06T04:03:08.723Z,100727.88
2023-03-06T04:05:12.753Z,100720.81
2023-03-06T04:07:15.408Z,100717.47
2023-03-06T04:09:17.443Z,100713.66
2023-03-06T04:11:19.592Z,100714.59
2023-03-06T04:13:22.406Z,100720.75
2023-03-06T04:15:24.438Z,100719.88
2023-03-06T04:17:27.307Z,100713.91
2023-03-06T04:19:29.284Z,100710.22
2023-03-06T04:21:31.400Z,100708.38
2023-03-06T04:23:33.597Z,100700.50
2023-03-06T04:25:35.881Z,100694.69
2023-03-06T04:27:37.924Z,100691.25
2023-03-06T04:29:39.867Z,100691.44
2023-03-06T04:31:41.897Z,100686.16
2023-03-06T04:33:44.054Z,100681.91
2023-03-06T04:35:46.084Z,100679.47
2023-03-06T04:37:48.157Z,100679.47
2023-03-06T04:39:50.362Z,100675.31
2023-03-06T04:41:55.054Z,100660.00
2023-03-06T04:43:57.664Z,100661.06
2023-03-06T04:46:02.081Z,100657.34
2023-03-06T04:48:06.079Z,100656.38
2023-03-06T04:50:10.488Z,100654.38
2023-03-06T04:52:12.701Z,100653.72
2023-03-06T04:54:17.955Z,100655.56
2023-03-06T04:56:21.523Z,100659.03
2023-03-06T04:58:24.786Z,100662.41
2023-03-06T05:00:32.518Z,100656.22
2023-03-06T05:02:35.111Z,100654.25
2023-03-06T05:04:39.954Z,100652.84
2023-03-06T05:06:43.501Z,100658.03
2023-03-06T05:08:48.919Z,100666.78
2023-03-06T05:10:57.009Z,100664.63
2023-03-06T05:13:00.209Z,100666.44
2023-03-06T05:15:03.533Z,100656.09
2023-03-06T05:17:07.059Z,100655.34
2023-03-06T05:19:11.079Z,100655.56
2023-03-06T05:21:13.594Z,100650.31
2023-03-06T05:23:18.334Z,100645.91
2023-03-06T05:25:20.884Z,100653.28
2023-03-06T05:27:23.244Z,100649.75
2023-03-06T05:29:26.823Z,100655.28
2023-03-06T05:31:30.457Z,100650.75
2023-03-06T05:33:34.941Z,100652.31
2023-03-06T05:35:37.399Z,100642.16
2023-03-06T05:37:40.181Z,100645.03
2023-03-06T05:39:43.218Z,100644.16
2023-03-06T05:41:47.821Z,100638.66
2023-03-06T05:43:50.729Z,100638.53
2023-03-06T05:46:02.515Z,100629.88
2023-03-06T05:48:06.534Z,100634.03
2023-03-06T05:50:11.103Z,100625.41
2023-03-06T05:52:14.365Z,100615.78
2023-03-06T05:54:17.679Z,100623.41
2023-03-06T05:56:22.964Z,100614.78
2023-03-06T05:58:25.207Z,100605.56
2023-03-06T06:00:28.721Z,100609.09
2023-03-06T06:02:32.879Z,100604.28
2023-03-06T06:04:36.827Z,100609.91
2023-03-06T06:06:40.127Z,100602.91
2023-03-06T06:08:43.951Z,100605.19
2023-03-06T06:10:47.374Z,100594.63
2023-03-06T06:12:50.772Z,100605.19
2023-03-06T06:14:53.752Z,100598.38
2023-03-06T06:16:57.032Z,100605.47
2023-03-06T06:19:01.867Z,100603.59
2023-03-06T06:21:07.112Z,100608.50
2023-03-06T06:23:12.690Z,100602.16
2023-03-06T06:25:17.202Z,100606.44
2023-03-06T06:27:21.685Z,100604.38
2023-03-06T06:29:26.966Z,100602.00
2023-03-06T06:31:31.036Z,100612.41
2023-03-06T06:33:33.491Z,100602.09
2023-03-06T06:35:38.290Z,100612.41
2023-03-06T06:37:42.371Z,100600.47
2023-03-06T06:39:47.402Z,100610.69
2023-03-06T06:42:05.555Z,100602.84
2023-03-06T06:44:15.757Z,100590.16
2023-03-06T06:46:49.965Z,100596.88
2023-03-06T06:48:41.750Z,100595.00
2023-03-06T06:50:55.377Z,100596.88
2023-03-06T06:52:59.030Z,100601.47
2023-03-06T06:55:01.556Z,100581.06
2023-03-06T06:57:05.155Z,100582.69
2023-03-06T06:59:16.553Z,100584.06
2023-03-06T07:01:28.412Z,100574.97
2023-03-06T07:03:31.006Z,100570.38
2023-03-06T07:05:37.931Z,100573.88
2023-03-06T07:07:53.280Z,100574.22
2023-03-06T07:09:55.989Z,100569.44
2023-03-06T07:12:15.983Z,100568.25
2023-03-06T07:14:32.271Z,100569.44
2023-03-06T07:16:41.911Z,100564.28
2023-03-06T07:18:50.728Z,100567.53
2023-03-06T07:21:01.269Z,100568.91
2023-03-06T07:23:09.602Z,100562.28
2023-03-06T07:25:13.908Z,100558.06
2023-03-06T07:27:37.912Z,100559.56
2023-03-06T07:29:45.251Z,100562.47
2023-03-06T07:31:48.857Z,100562.34
2023-03-06T07:33:59.044Z,100564.34
2023-03-06T07:36:07.084Z,100568.50
2023-03-06T07:38:17.175Z,100569.88
2023-03-06T07:40:27.305Z,100569.13
2023-03-06T07:42:35.610Z,100559.78
2023-03-06T07:44:42.173Z,100553.22
2023-03-06T07:47:15.263Z,100551.47
2023-03-06T07:49:19.415Z,100553.91
2023-03-06T07:51:23.436Z,100548.09
2023-03-06T07:53:31.970Z,100545.19
2023-03-06T07:55:36.803Z,100543.97
2023-03-06T07:57:43.364Z,100545.88
2023-03-06T07:59:49.294Z,100542.94
2023-03-06T08:01:56.477Z,100540.81
2023-03-06T08:04:24.512Z,100529.31
2023-03-06T08:06:44.138Z,100524.38
2023-03-06T08:08:58.232Z,100526.28
2023-03-06T08:11:19.753Z,100533.06
2023-03-06T08:13:30.605Z,100527.13
2023-03-06T08:15:56.899Z,100520.97
2023-03-06T08:18:06.447Z,100523.97
2023-03-06T08:20:10.638Z,100525.59
2023-03-06T08:22:19.825Z,100526.41
2023-03-06T08:24:40.574Z,100526.09
2023-03-06T08:26:58.586Z,100522.13
2023-03-06T08:29:09.776Z,100521.69
2023-03-06T08:31:53.943Z,100521.16
2023-03-06T08:34:00.008Z,100517.41
2023-03-06T08:36:10.719Z,100513.16
2023-03-06T08:38:26.957Z,100510.38
2023-03-06T08:40:54.959Z,100511.88
2023-03-06T08:46:07.454Z,100507.34
2023-03-06T08:48:16.055Z,100503.94
2023-03-06T08:50:21.247Z,100503.81
2023-03-06T08:52:26.954Z,100503.97
2023-03-06T08:54:38.162Z,100503.97
2023-03-06T08:56:47.679Z,100502.91
2023-03-06T08:59:00.471Z,100516.69
2023-03-06T09:01:10.855Z,100511.38
2023-03-06T09:03:18.480Z,100506.44
2023-03-06T09:05:23.322Z,100508.34
2023-03-06T09:07:30.772Z,100508.34
2023-03-06T09:09:32.936Z,100513.97
2023-03-06T09:11:44.159Z,100505.59
2023-03-06T09:13:47.131Z,100499.09
2023-03-06T09:15:52.296Z,100498.63
2023-03-06T09:18:05.771Z,100500.59
2023-03-06T09:20:10.830Z,100493.31
2023-03-06T09:22:31.083Z,100494.31
2023-03-06T09:24:35.173Z,100487.44
2023-03-06T09:26:47.591Z,100487.63
2023-03-06T09:28:53.734Z,100481.06
2023-03-06T09:31:12.974Z,100477.78
2023-03-06T09:33:15.000Z,100479.00
2023-03-06T09:37:40.022Z,100477.78
2023-03-06T09:40:01.395Z,100468.66
2023-03-06T09:42:16.054Z,100464.94
2023-03-06T09:44:34.568Z,100466.31
2023-03-06T09:46:47.500Z,100462.91
2023-03-06T09:49:09.122Z,100462.63
2023-03-06T09:51:31.046Z,100453.34
2023-03-06T09:53:46.705Z,100456.50
2023-03-06T09:56:01.334Z,100450.66
2023-03-06T09:58:14.495Z,100443.91
2023-03-06T10:00:20.691Z,100444.41
2023-03-06T10:02:26.617Z,100444.41
2023-03-06T10:04:35.147Z,100442.13
2023-03-06T10:06:46.440Z,100447.44
2023-03-06T10:08:54.785Z,100456.94
2023-03-06T10:11:02.659Z,100442.56
2023-03-06T10:13:18.280Z,100439.16
2023-03-06T10:15:27.381Z,100434.19
2023-03-06T10:17:36.002Z,100435.28
2023-03-06T10:19:40.264Z,100436.91
2023-03-06T10:21:46.911Z,100427.59
2023-03-06T10:23:55.018Z,100423.56
2023-03-06T10:26:01.335Z,100425.53
2023-03-06T10:28:13.206Z,100423.94
2023-03-06T10:30:19.810Z,100432.53
2023-03-06T10:32:32.158Z,100422.03
2023-03-06T10:34:41.330Z,100426.72
2023-03-06T10:36:43.426Z,100412.28
2023-03-06T10:38:48.646Z,100413.31
2023-03-06T10:40:55.293Z,100409.13
2023-03-06T10:43:10.831Z,100404.34
2023-03-06T10:45:15.766Z,100409.84
2023-03-06T10:47:27.309Z,100407.09
2023-03-06T10:49:31.506Z,100405.34
2023-03-06T10:51:35.747Z,100404.69
2023-03-06T10:53:50.893Z,100402.00
2023-03-06T10:55:58.452Z,100399.81
2023-03-06T10:58:06.900Z,100396.31
2023-03-06T11:00:15.232Z,100386.22
2023-03-06T11:02:25.234Z,100389.81
2023-03-06T11:04:30.191Z,100386.47
2023-03-06T11:06:35.813Z,100401.59
2023-03-06T11:08:38.451Z,100381.09
2023-03-06T11:10:40.669Z,100391.63
2023-03-06T11:12:43.683Z,100390.88
2023-03-06T11:14:45.971Z,100384.13
2023-03-06T11:16:53.596Z,100383.94
2023-03-06T11:19:00.804Z,100374.88
2023-03-06T11:21:07.502Z,100380.75
2023-03-06T11:23:14.016Z,100383.66
2023-03-06T11:25:21.009Z,100379.22
2023-03-06T11:27:34.850Z,100372.59
2023-03-06T11:29:43.629Z,100371.94
2023-03-06T11:31:55.110Z,100373.69
2023-03-06T11:34:03.351Z,100368.28
2023-03-06T11:36:11.768Z,100368.53
2023-03-06T11:38:21.004Z,100364.09
2023-03-06T11:40:27.684Z,100368.50
2023-03-06T11:42:38.257Z,100362.53
2023-03-06T11:44:47.207Z,100353.91
2023-03-06T11:46:54.888Z,100351.41
2023-03-06T11:49:03.220Z,100338.03
2023-03-06T11:51:15.378Z,100338.84
2023-03-06T11:53:23.051Z,100330.28
2023-03-06T11:55:34.970Z,100336.38
2023-03-06T11:57:48.385Z,100336.88
2023-03-06T11:59:54.951Z,100329.44
2023-03-06T12:02:03.339Z,100324.47
2023-03-06T12:04:11.822Z,100316.66
2023-03-06T12:06:20.170Z,100318.69
2023-03-06T12:08:29.333Z,100317.91
2023-03-06T12:10:38.967Z,100326.66
2023-03-06T12:12:47.216Z,100314.91
2023-03-06T12:14:52.776Z,100301.91
2023-03-06T12:16:59.308Z,100308.06
2023-03-06T12:19:22.467Z,100300.97
2023-03-06T12:21:27.963Z,100298.56
2023-03-06T12:23:36.327Z,100296.66
2023-03-06T12:25:42.483Z,100285.81
2023-03-06T12:27:51.620Z,100288.38
2023-03-06T12:30:01.999Z,100292.97
2023-03-06T12:32:10.443Z,100283.41
2023-03-06T12:34:18.845Z,100280.69
2023-03-06T12:36:31.544Z,100274.00
2023-03-06T12:38:39.865Z,100271.66
2023-03-06T12:40:53.504Z,100268.34
2023-03-06T12:43:01.934Z,100260.63
2023-03-06T12:45:05.965Z,100252.88
2023-03-06T12:47:11.162Z,100251.25
2023-03-06T12:49:31.439Z,100252.38
2023-03-06T12:51:35.362Z,100249.13
2023-03-06T12:53:40.385Z,100250.25
2023-03-06T12:55:46.684Z,100245.03
2023-03-06T12:57:49.692Z,100233.94
2023-03-06T12:59:54.107Z,100248.53
2023-03-06T13:02:05.177Z,100233.00
2023-03-06T13:04:13.531Z,100233.66
2023-03-06T13:06:21.876Z,100228.69
2023-03-06T13:08:27.618Z,100228.75
2023-03-06T13:10:33.935Z,100223.59
2023-03-06T13:12:47.652Z,100218.53
2023-03-06T13:14:56.754Z,100217.59
2023-03-06T13:17:05.049Z,100219.28
2023-03-06T13:19:12.865Z,100208.25
2023-03-06T13:21:21.209Z,100200.47
2023-03-06T13:23:29.493Z,100196.00
2023-03-06T13:25:33.294Z,100201.88
2023-03-06T13:27:41.675Z,100205.28
2023-03-06T13:29:49.947Z,100196.50
2023-03-06T13:31:53.867Z,100195.78
2023-03-06T13:34:00.267Z,100186.56
2023-03-06T13:36:08.505Z,100189.25
2023-03-06T13:38:31.414Z,100183.41
2023-03-06T13:40:35.668Z,100183.38
2023-03-06T13:42:59.934Z,100171.47
2023-03-06T13:45:08.200Z,100171.44
2023-03-06T13:47:16.693Z,100177.56
2023-03-06T13:49:24.384Z,100168.59
2023-03-06T13:51:33.907Z,100167.16
2023-03-06T13:53:40.999Z,100189.31
2023-03-06T13:55:52.727Z,100177.25
2023-03-06T13:58:01.277Z,100167.03
2023-03-06T14:00:11.728Z,100164.66
2023-03-06T14:02:20.108Z,100157.81
2023-03-06T14:04:28.512Z,100162.09
2023-03-06T14:06:35.088Z,100149.25
2023-03-06T14:08:41.389Z,100158.53
2023-03-06T14:10:45.483Z,100148.34
2023-03-06T14:12:51.094Z,100145.66
2023-03-06T14:14:58.202Z,100154.16
2023-03-06T14:17:04.196Z,100139.44
2023-03-06T14:19:16.386Z,100142.28
2023-03-06T14:21:24.853Z,100132.09
2023-03-06T14:23:28.822Z,100141.63
2023-03-06T14:25:32.307Z,100132.97
2023-03-06T14:27:39.873Z,100148.38
2023-03-06T14:29:42.007Z,100129.50
2023-03-06T14:31:44.205Z,100118.28
2023-03-06T14:33:51.609Z,100130.47
2023-03-06T14:36:03.080Z,100116.66
2023-03-06T14:38:08.330Z,100123.66
2023-03-06T14:40:13.170Z,100110.81
2023-03-06T14:42:21.201Z,100115.94
2023-03-06T14:44:26.689Z,100120.06
2023-03-06T14:46:29.173Z,100114.00
2023-03-06T14:48:38.804Z,100113.91
2023-03-06T14:50:42.008Z,100143.91
2023-03-06T14:52:44.549Z,100156.84
2023-03-06T14:54:48.332Z,100136.28
2023-03-06T14:56:54.520Z,100137.94
2023-03-06T14:59:00.986Z,100141.19
2023-03-06T15:01:07.217Z,100114.31
2023-03-06T15:03:17.899Z,100115.91
2023-03-06T15:05:27.048Z,100114.06
2023-03-06T15:07:31.426Z,100108.03
2023-03-06T15:09:36.276Z,100106.19
2023-03-06T15:11:44.503Z,100108.81
2023-03-06T15:14:01.310Z,100100.00
2023-03-06T15:16:05.477Z,100103.53
2023-03-06T15:18:13.850Z,100096.00
2023-03-06T15:20:22.284Z,100096.03
2023-03-06T15:22:26.542Z,100087.50
2023-03-06T15:24:34.980Z,100096.16
2023-03-06T15:26:38.058Z,100090.91
2023-03-06T15:28:40.256Z,100096.84
2023-03-06T15:30:42.665Z,100094.34
2023-03-06T15:32:44.819Z,100097.81
2023-03-06T15:34:47.045Z,100087.44
2023-03-06T15:36:54.238Z,100078.75
2023-03-06T15:38:58.548Z,100079.44
2023-03-06T15:41:02.455Z,100089.84
2023-03-06T15:43:10.644Z,100089.22
2023-03-06T15:45:19.180Z,100081.59
2023-03-06T15:47:22.111Z,100079.81
2023-03-06T15:49:24.379Z,100091.16
2023-03-06T15:51:26.542Z,100086.00
2023-03-06T15:53:28.848Z,100079.22
2023-03-06T15:55:32.724Z,100080.09
2023-03-06T15:57:34.906Z,100087.00
2023-03-06T15:59:44.422Z,100087.72
2023-03-06T16:01:46.734Z,100073.22
2023-03-06T16:03:49.165Z,100070.78
2023-03-06T16:05:51.410Z,100071.47
2023-03-06T16:07:54.294Z,100073.19
2023-03-06T16:09:56.532Z,100061.22
2023-03-06T16:11:59.876Z,100085.28
2023-03-06T16:14:02.274Z,100074.06
2023-03-06T16:16:04.784Z,100081.72
2023-03-06T16:18:07.729Z,100088.47
2023-03-06T16:20:15.808Z,100086.81
2023-03-06T16:22:17.959Z,100094.59
2023-03-06T16:24:20.109Z,100089.00
2023-03-06T16:26:30.161Z,100086.28
2023-03-06T16:28:33.110Z,100086.88
2023-03-06T16:30:36.033Z,100086.25
2023-03-06T16:32:39.532Z,100082.34
2023-03-06T16:34:42.671Z,100073.69
2023-03-06T16:36:45.003Z,100073.00
2023-03-06T16:38:48.344Z,100066.25
2023-03-06T16:40:50.601Z,100072.28
2023-03-06T16:42:54.819Z,100064.59
2023-03-06T16:44:57.387Z,100061.16
2023-03-06T16:47:01.129Z,100073.00
2023-03-06T16:49:03.370Z,100067.06
2023-03-06T16:51:07.434Z,100062.78
2023-03-06T16:53:09.771Z,100060.16
2023-03-06T16:55:11.912Z,100067.88
2023-03-06T16:57:15.426Z,100067.63
2023-03-06T16:59:17.770Z,100062.34
2023-03-06T17:01:20.442Z,100065.75
2023-03-06T17:03:22.771Z,100054.69
2023-03-06T17:05:25.362Z,100057.44
2023-03-06T17:07:27.664Z,100068.16
2023-03-06T17:09:29.859Z,100066.28
2023-03-06T17:11:32.471Z,100065.84
2023-03-06T17:13:34.853Z,100062.53
2023-03-06T17:15:37.662Z,100066.53
2023-03-06T17:17:39.887Z,100063.28
2023-03-06T17:19:46.890Z,100060.91
2023-03-06T17:21:49.561Z,100063.97
2023-03-06T17:23:52.315Z,100062.50
2023-03-06T17:26:03.428Z,100068.41
2023-03-06T17:28:05.956Z,100062.59
2023-03-06T17:30:10.502Z,100056.38
2023-03-06T17:32:13.378Z,100063.19
2023-03-06T17:34:16.513Z,100060.72
2023-03-06T17:36:19.742Z,100070.69
2023-03-06T17:38:22.416Z,100058.94
2023-03-06T17:40:24.663Z,100057.94
2023-03-06T17:42:27.130Z,100057.03
2023-03-06T17:44:30.936Z,100061.00
2023-03-06T17:46:35.355Z,100050.97
2023-03-06T17:48:38.087Z,100056.72
2023-03-06T17:50:40.553Z,100057.69
2023-03-06T17:52:42.939Z,100056.94
2023-03-06T17:54:45.157Z,100059.63
2023-03-06T17:56:47.906Z,100066.66
2023-03-06T17:58:50.418Z,100064.88
2023-03-06T18:00:53.168Z,100067.22
2023-03-06T18:02:55.407Z,100082.00
2023-03-06T18:04:58.490Z,100093.16
2023-03-06T18:07:00.815Z,100082.88
2023-03-06T18:09:04.068Z,100075.19
2023-03-06T18:11:08.601Z,100071.78
2023-03-06T18:13:11.543Z,100080.28
2023-03-06T18:15:13.935Z,100073.13
2023-03-06T18:17:17.006Z,100077.44
2023-03-06T18:19:19.819Z,100075.75
2023-03-06T18:21:24.782Z,100068.00
2023-03-06T18:23:27.049Z,100073.06
2023-03-06T18:25:31.948Z,100070.56
2023-03-06T18:27:35.028Z,100069.72
2023-03-06T18:29:37.123Z,100069.69
2023-03-06T18:31:41.949Z,100072.16
2023-03-06T18:33:44.893Z,100076.22
2023-03-06T18:35:47.360Z,100072.03
2023-03-06T18:37:51.781Z,100069.59
2023-03-06T18:39:54.515Z,100070.50
2023-03-06T18:41:56.883Z,100073.06
2023-03-06T18:44:01.368Z,100075.53
2023-03-06T18:46:04.037Z,100072.94
2023-03-06T18:48:06.770Z,100077.34
2023-03-06T18:50:11.385Z,100082.38
2023-03-06T18:52:13.659Z,100083.13
2023-03-06T18:54:16.125Z,100090.88
2023-03-06T18:56:21.433Z,100076.22
2023-03-06T18:58:23.892Z,100074.59
2023-03-06T19:00:26.789Z,100069.50
2023-03-06T19:02:29.409Z,100068.47
2023-03-06T19:04:31.707Z,100074.41
2023-03-06T19:06:34.674Z,100071.06
2023-03-06T19:08:38.925Z,100073.59
2023-03-06T19:10:44.006Z,100065.88
2023-03-06T19:12:46.883Z,100065.06
2023-03-06T19:14:50.407Z,100068.50
2023-03-06T19:16:54.305Z,100064.06
2023-03-06T19:18:59.086Z,100056.38
2023-03-06T19:21:08.528Z,100054.75
2023-03-06T19:23:11.632Z,100047.75
2023-03-06T19:25:14.149Z,100055.47
2023-03-06T19:27:16.588Z,100060.25
2023-03-06T19:29:18.778Z,100056.94
2023-03-06T19:31:25.304Z,100054.47
2023-03-06T19:33:27.540Z,100057.81
2023-03-06T19:35:29.773Z,100057.78
2023-03-06T19:37:32.364Z,100046.72
2023-03-06T19:39:34.598Z,100048.13
2023-03-06T19:41:36.898Z,100049.88
2023-03-06T19:43:39.480Z,100044.00
2023-03-06T19:45:44.303Z,100038.91
2023-03-06T19:47:46.617Z,100038.84
2023-03-06T19:49:49.020Z,100032.13
2023-03-06T19:51:51.753Z,100026.09
2023-03-06T19:53:54.422Z,100027.94
2023-03-06T19:56:03.888Z,100023.59
2023-03-06T19:58:06.517Z,100026.19
2023-03-06T20:00:10.532Z,100023.69
2023-03-06T20:02:13.244Z,100020.16
2023-03-06T20:04:17.139Z,100020.75
2023-03-06T20:06:20.416Z,100014.19
2023-03-06T20:08:22.484Z,100012.38
2023-03-06T20:10:24.751Z,100005.53
2023-03-06T20:12:27.338Z,100002.22
2023-03-06T20:14:29.551Z,100016.44
2023-03-06T20:16:32.776Z,100017.22
2023-03-06T20:18:35.106Z,100011.31
2023-03-06T20:20:39.400Z,100008.72
2023-03-06T20:22:41.632Z,100007.94
2023-03-06T20:24:43.897Z,100017.28
2023-03-06T20:26:47.539Z,100016.31
2023-03-06T20:28:49.600Z,100011.97
2023-03-06T20:30:51.903Z,100012.03
2023-03-06T20:32:55.077Z,100007.03
2023-03-06T20:34:57.240Z,100001.06
2023-03-06T20:36:59.619Z,100012.00
2023-03-06T20:39:06.124Z,100015.59
2023-03-06T20:41:14.748Z,100007.06
2023-03-06T20:43:16.850Z,99996.91
2023-03-06T20:45:18.938Z,100002.97
2023-03-06T20:47:21.300Z,100001.31
2023-03-06T20:49:25.548Z,100001.94
2023-03-06T20:51:31.943Z,99990.94
2023-03-06T20:53:35.398Z,100005.50
2023-03-06T20:55:39.912Z,99996.00
2023-03-06T20:57:42.087Z,99994.44
2023-03-06T20:59:45.495Z,99996.97
2023-03-06T21:01:48.240Z,99992.84
2023-03-06T21:03:51.312Z,99997.97
2023-03-06T21:05:53.458Z,99998.91
2023-03-06T21:07:55.575Z,99986.75
2023-03-06T21:09:57.950Z,99991.88
2023-03-06T21:12:00.327Z,99992.69
2023-03-06T21:14:03.417Z,99989.19
2023-03-06T21:16:11.125Z,99989.34
2023-03-06T21:18:13.392Z,99989.31
2023-03-06T21:20:15.649Z,99989.31
2023-03-06T21:22:18.084Z,99987.72
2023-03-06T21:24:21.325Z,99986.03
2023-03-06T21:26:26.754Z,99992.97
2023-03-06T21:28:28.876Z,99991.13
2023-03-06T21:30:31.217Z,99986.13
2023-03-06T21:32:33.594Z,99992.00
2023-03-06T21:34:36.041Z,99984.41
2023-03-06T21:36:38.217Z,99980.16
2023-03-06T21:38:40.787Z,99981.00
2023-03-06T21:40:43.040Z,99977.63
2023-03-06T21:42:45.167Z,99972.38
2023-03-06T21:44:47.327Z,99971.53
2023-03-06T21:46:49.496Z,99971.47
2023-03-06T21:48:51.991Z,99977.31
2023-03-06T21:51:06.357Z,99968.91
2023-03-06T21:53:09.049Z,99964.56
2023-03-06T21:55:11.832Z,99960.19
2023-03-06T21:57:14.106Z,99962.78
2023-03-06T21:59:16.209Z,99966.22
2023-03-06T22:01:22.161Z,99965.41
2023-03-06T22:03:24.543Z,99961.97
2023-03-06T22:05:26.827Z,99960.13
2023-03-06T22:07:29.399Z,99957.44
2023-03-06T22:09:31.633Z,99958.09
2023-03-06T22:11:37.414Z,99957.44
2023-03-06T22:13:40.157Z,99954.03
2023-03-06T22:15:51.019Z,99954.03
2023-03-06T22:17:53.843Z,99956.69
2023-03-06T22:19:56.172Z,99944.72
2023-03-06T22:21:58.353Z,99952.31
2023-03-06T22:24:00.746Z,99955.53
2023-03-06T22:26:05.570Z,99941.09
2023-03-06T22:28:07.973Z,99947.13
2023-03-06T22:30:11.038Z,99949.47
2023-03-06T22:32:13.426Z,99937.47
2023-03-06T22:34:15.813Z,99945.09
2023-03-06T22:36:17.991Z,99941.66
2023-03-06T22:38:20.099Z,99947.13
2023-03-06T22:40:22.261Z,99942.66
2023-03-06T22:42:24.422Z,99942.13
2023-03-06T22:44:27.368Z,99931.97
2023-03-06T22:46:30.307Z,99935.31
2023-03-06T22:48:33.150Z,99933.53
2023-03-06T22:50:35.286Z,99923.44
2023-03-06T22:52:37.451Z,99921.97
2023-03-06T22:54:39.552Z,99927.81
2023-03-06T22:56:42.243Z,99920.03
2023-03-06T22:58:45.200Z,99914.81
2023-03-06T23:00:47.525Z,99910.63
2023-03-06T23:02:49.657Z,99915.38
2023-03-06T23:04:52.958Z,99914.03
2023-03-06T23:06:55.309Z,99896.94
2023-03-06T23:09:01.587Z,99906.34
2023-03-06T23:11:09.096Z,99903.06
2023-03-06T23:13:11.257Z,99908.03
2023-03-06T23:15:13.428Z,99909.13
2023-03-06T23:17:15.967Z,99904.84
2023-03-06T23:19:18.167Z,99902.25
2023-03-06T23:21:21.970Z,99904.78
2023-03-06T23:23:24.047Z,99895.44
2023-03-06T23:25:26.219Z,99895.31
2023-03-06T23:27:29.558Z,99892.88
2023-03-06T23:29:31.947Z,99893.00
2023-03-06T23:31:34.219Z,99890.44
2023-03-06T23:33:37.257Z,99893.69
2023-03-06T23:35:40.153Z,99876.63
2023-03-06T23:37:42.316Z,99883.34
2023-03-06T23:39:44.546Z,99879.19
2023-03-06T23:41:46.716Z,99880.69
2023-03-06T23:43:49.851Z,99880.91
2023-03-06T23:45:53.849Z,99886.06
2023-03-06T23:47:56.707Z,99881.81
2023-03-06T23:49:59.010Z,99887.06
2023-03-06T23:52:01.058Z,99878.56
2023-03-06T23:54:03.313Z,99882.03
2023-03-06T23:56:07.344Z,99882.84
2023-03-06T23:58:09.542Z,99882.78
